M/T Havva Ana — V7RE3 — position and weather

sailwx.info

Track history (hours):
 
Tides and Currents Weather Stations Pressure Air Temp Water Temp Dewpoint Dewpoint Depression Visibility Wind Speed Wind Dir Waves Ship Positions

M/T Havva Ana

Last reported at 2016-May-31 11:30 UTC. Time now 2016-May-31 21:54 UTC.
Position N 41°09' E 002°54'.

Length 124 m; draft 7.6 m.

Type: Tanker. MMSI: 538003488.

Date/timePositionNaut miles runAvg speedWind from/ knotsBaromVisibWave heightAir tempDewpointWater temp
2016-May-31 11:30N 41°09' E 002°54'1311.6
2016-May-31 10:24N 41°03' E 002°39'1011.5
2016-May-31 09:31N 40°58' E 002°28'1111.5
2016-May-31 08:33N 40°53' E 002°15'1211.5
2016-May-31 07:32N 40°47' E 002°02'1111.3
2016-May-31 06:33N 40°41' E 001°49'3310.8
2016-May-31 03:27N 40°25' E 001°11'1011.2
2016-May-31 02:33N 40°20' E 000°59'  
2016-May-27 23:25N 40°02' E 000°39'7 8.3
2016-May-27 22:32N 40°08' E 000°45'1110.9
2016-May-27 21:33N 40°17' E 000°54'1110.8
2016-May-27 20:33N 40°25' E 001°03'1110.8
2016-May-27 19:33N 40°35' E 001°08'1210.7
2016-May-27 18:27N 40°46' E 001°12'19 0.4
2016-May-25 19:28N 41°05' E 001°15'1 0.0
2016-May-24 04:21N 41°05' E 001°14'1 0.2
2016-May-23 21:27N 41°06' E 001°14'20 0.9
2016-May-22 21:33N 40°50' E 001°30'10 9.7
2016-May-22 20:33N 40°42' E 001°38'1010.3
2016-May-22 19:34N 40°32' E 001°41'1111.2
2016-May-22 18:33N 40°21' E 001°44'1110.9
2016-May-22 17:33N 40°11' E 001°47'1010.0
2016-May-22 16:33N 40°01' E 001°49'1110.6
2016-May-22 15:33N 39°50' E 001°52'1111.5
2016-May-22 14:33N 39°39' E 001°56'1311.6
2016-May-22 13:24N 39°26' E 002°00'911.1
2016-May-22 12:34N 39°20' E 002°09'1111.3
2016-May-22 11:33N 39°13' E 002°20'1212.3
2016-May-22 10:33N 39°05' E 002°32'1212.2
2016-May-22 09:33N 38°57' E 002°45'1211.9
2016-May-22 08:34N 38°50' E 002°56'1211.5
2016-May-22 07:33N 38°42' E 003°08'1111.2
2016-May-22 06:33N 38°35' E 003°19'1111.1
2016-May-22 05:33N 38°28' E 003°29'1111.4
2016-May-22 04:33N 38°21' E 003°41'1711.8
2016-May-22 03:08N 38°10' E 003°57'2212.1
2016-May-22 01:21N 37°56' E 004°18'  
Track history (hours):
 
Tides and Currents Weather Stations Pressure Air Temp Water Temp Dewpoint Dewpoint Depression Visibility Wind Speed Wind Dir Waves Ship Positions

M/T Havva Ana

Last reported at 2016-May-31 11:30 UTC. Time now 2016-May-31 21:54 UTC.
Position N 41°09' E 002°54'.

Length 124 m; draft 7.6 m.

Type: Tanker. MMSI: 538003488.

Date/timePositionNaut miles runAvg speedWind from/ knotsBaromVisibWave heightAir tempDewpointWater temp
2016-May-31 11:30N 41°09' E 002°54'1311.6
2016-May-31 10:24N 41°03' E 002°39'1011.5
2016-May-31 09:31N 40°58' E 002°28'1111.5
2016-May-31 08:33N 40°53' E 002°15'1211.5
2016-May-31 07:32N 40°47' E 002°02'1111.3
2016-May-31 06:33N 40°41' E 001°49'3310.8
2016-May-31 03:27N 40°25' E 001°11'1011.2
2016-May-31 02:33N 40°20' E 000°59'  
2016-May-27 23:25N 40°02' E 000°39'7 8.3
2016-May-27 22:32N 40°08' E 000°45'1110.9
2016-May-27 21:33N 40°17' E 000°54'1110.8
2016-May-27 20:33N 40°25' E 001°03'1110.8
2016-May-27 19:33N 40°35' E 001°08'1210.7
2016-May-27 18:27N 40°46' E 001°12'19 0.4
2016-May-25 19:28N 41°05' E 001°15'1 0.0
2016-May-24 04:21N 41°05' E 001°14'1 0.2
2016-May-23 21:27N 41°06' E 001°14'20 0.9
2016-May-22 21:33N 40°50' E 001°30'10 9.7
2016-May-22 20:33N 40°42' E 001°38'1010.3
2016-May-22 19:34N 40°32' E 001°41'1111.2
2016-May-22 18:33N 40°21' E 001°44'1110.9
2016-May-22 17:33N 40°11' E 001°47'1010.0
2016-May-22 16:33N 40°01' E 001°49'1110.6
2016-May-22 15:33N 39°50' E 001°52'1111.5
2016-May-22 14:33N 39°39' E 001°56'1311.6
2016-May-22 13:24N 39°26' E 002°00'911.1
2016-May-22 12:34N 39°20' E 002°09'1111.3
2016-May-22 11:33N 39°13' E 002°20'1212.3
2016-May-22 10:33N 39°05' E 002°32'1212.2
2016-May-22 09:33N 38°57' E 002°45'1211.9
2016-May-22 08:34N 38°50' E 002°56'1211.5
2016-May-22 07:33N 38°42' E 003°08'1111.2
2016-May-22 06:33N 38°35' E 003°19'1111.1
2016-May-22 05:33N 38°28' E 003°29'1111.4
2016-May-22 04:33N 38°21' E 003°41'1711.8
2016-May-22 03:08N 38°10' E 003°57'2212.1
2016-May-22 01:21N 37°56' E 004°18'  

Dump ship's entire track history